createdAt,value
2018-05-14T00:02:11.826Z,15.30
2018-05-14T00:04:47.081Z,15.30
2018-05-14T00:07:22.222Z,15.30
2018-05-14T00:09:57.521Z,15.30
2018-05-14T00:12:33.404Z,15.20
2018-05-14T00:15:10.084Z,15.20
2018-05-14T00:17:45.228Z,15.20
2018-05-14T00:20:20.532Z,15.20
2018-05-14T00:22:55.752Z,15.20
2018-05-14T00:25:31.787Z,15.10
2018-05-14T00:28:07.757Z,15.10
2018-05-14T00:30:42.820Z,15.10
2018-05-14T00:33:18.716Z,15.10
2018-05-14T00:35:53.981Z,15.10
2018-05-14T00:38:29.109Z,15.20
2018-05-14T00:41:04.339Z,15.20
2018-05-14T00:43:39.477Z,15.20
2018-05-14T00:46:14.809Z,15.20
2018-05-14T00:48:50.057Z,15.20
2018-05-14T00:51:26.016Z,15.20
2018-05-14T00:54:01.188Z,15.20
2018-05-14T00:56:38.115Z,15.20
2018-05-14T00:59:13.377Z,15.20
2018-05-14T01:01:48.532Z,15.20
2018-05-14T01:04:23.811Z,15.20
2018-05-14T01:06:58.917Z,15.30
2018-05-14T01:09:34.826Z,15.30
2018-05-14T01:12:10.113Z,15.20
2018-05-14T01:14:45.378Z,15.20
2018-05-14T01:17:21.718Z,15.20
2018-05-14T01:19:58.171Z,15.20
2018-05-14T01:22:33.291Z,15.20
2018-05-14T01:25:08.445Z,15.30
2018-05-14T01:27:44.390Z,15.30
2018-05-14T01:30:19.579Z,15.30
2018-05-14T01:32:54.966Z,15.30
2018-05-14T01:35:30.128Z,15.30
2018-05-14T01:38:05.423Z,15.30
2018-05-14T01:40:40.593Z,15.30
2018-05-14T01:43:15.760Z,15.20
2018-05-14T01:45:50.930Z,15.20
2018-05-14T01:48:26.948Z,15.20
2018-05-14T01:51:02.935Z,15.20
2018-05-14T01:53:38.187Z,15.10
2018-05-14T01:56:13.459Z,15.10
2018-05-14T01:58:49.410Z,15.00
2018-05-14T02:01:25.360Z,15.00
2018-05-14T02:04:01.331Z,15.00
2018-05-14T02:06:36.613Z,14.90
2018-05-14T02:09:11.774Z,14.90
2018-05-14T02:11:47.777Z,14.80
2018-05-14T02:14:23.085Z,14.80
2018-05-14T02:16:59.050Z,14.70
2018-05-14T02:19:34.275Z,14.70
2018-05-14T02:22:09.552Z,14.70
2018-05-14T02:24:44.658Z,14.60
2018-05-14T02:27:20.582Z,14.60
2018-05-14T02:29:55.764Z,14.60
2018-05-14T02:32:30.953Z,14.60
2018-05-14T02:35:06.967Z,14.60
2018-05-14T02:37:44.847Z,14.50
2018-05-14T02:40:20.906Z,14.60
2018-05-14T02:42:56.193Z,14.50
2018-05-14T02:45:32.168Z,14.50
2018-05-14T02:48:07.534Z,14.50
2018-05-14T02:50:43.506Z,14.50
2018-05-14T02:53:18.795Z,14.50
2018-05-14T02:55:54.809Z,14.50
2018-05-14T02:58:29.989Z,14.40
2018-05-14T03:01:05.151Z,14.50
2018-05-14T03:03:40.415Z,14.50
2018-05-14T03:06:16.488Z,14.40
2018-05-14T03:08:51.692Z,14.40
2018-05-14T03:11:26.824Z,14.40
2018-05-14T03:14:02.781Z,14.40
2018-05-14T03:16:38.094Z,14.50
2018-05-14T03:19:13.353Z,14.40
2018-05-14T03:21:49.353Z,14.50
2018-05-14T03:24:24.648Z,14.40
2018-05-14T03:26:59.905Z,14.50
2018-05-14T03:29:35.068Z,14.50
2018-05-14T03:32:10.495Z,14.50
2018-05-14T03:34:45.620Z,14.50
2018-05-14T03:37:20.876Z,14.40
2018-05-14T03:39:56.858Z,14.40
2018-05-14T03:42:31.951Z,14.40
2018-05-14T03:45:07.183Z,14.40
2018-05-14T03:47:42.324Z,14.50
2018-05-14T03:50:17.676Z,14.50
2018-05-14T03:52:52.924Z,14.40
2018-05-14T03:55:29.012Z,14.50
2018-05-14T03:58:04.202Z,14.50
2018-05-14T04:00:57.369Z,14.50
2018-05-14T04:03:51.156Z,14.60
2018-05-14T04:06:44.122Z,14.60
2018-05-14T04:09:19.422Z,14.60
2018-05-14T04:11:54.668Z,14.60
2018-05-14T04:14:29.931Z,14.60
2018-05-14T04:17:05.140Z,14.60
2018-05-14T04:19:40.368Z,14.60
2018-05-14T04:22:15.552Z,14.70
2018-05-14T04:24:51.457Z,14.70
2018-05-14T04:27:26.676Z,14.70
2018-05-14T04:30:01.976Z,14.80
2018-05-14T04:32:38.004Z,14.90
2018-05-14T04:35:13.890Z,14.90
2018-05-14T04:37:49.017Z,14.90
2018-05-14T04:40:24.250Z,14.90
2018-05-14T04:42:59.601Z,15.00
2018-05-14T04:45:34.881Z,15.00
2018-05-14T04:48:10.773Z,15.10
2018-05-14T04:50:46.053Z,15.00
2018-05-14T04:53:21.359Z,15.00
2018-05-14T04:58:38.705Z,15.00
2018-05-14T05:01:13.772Z,15.00
2018-05-14T05:03:49.003Z,15.10
2018-05-14T05:06:24.282Z,15.10
2018-05-14T05:08:59.537Z,15.10
2018-05-14T05:11:34.880Z,15.10
2018-05-14T05:14:09.905Z,15.10
2018-05-14T05:16:45.918Z,15.10
2018-05-14T05:19:21.182Z,15.10
2018-05-14T05:21:57.090Z,15.20
2018-05-14T05:24:33.072Z,15.30
2018-05-14T05:27:08.194Z,15.20
2018-05-14T05:29:44.102Z,15.40
2018-05-14T05:32:20.120Z,15.50
2018-05-14T05:34:55.317Z,15.50
2018-05-14T05:37:30.493Z,15.60
2018-05-14T05:40:05.777Z,15.60
2018-05-14T05:42:41.034Z,15.60
2018-05-14T05:45:16.995Z,15.60
2018-05-14T05:47:52.181Z,15.60
2018-05-14T05:50:27.289Z,15.60
2018-05-14T05:53:03.272Z,15.60
2018-05-14T05:55:39.173Z,15.60
2018-05-14T05:58:15.154Z,15.70
2018-05-14T06:00:50.289Z,15.70
2018-05-14T06:03:25.541Z,15.80
2018-05-14T06:06:00.681Z,15.90
2018-05-14T06:08:36.668Z,16.20
2018-05-14T06:11:11.931Z,16.10
2018-05-14T06:13:47.303Z,16.30
2018-05-14T06:16:22.564Z,16.40
2018-05-14T06:18:57.895Z,16.40
2018-05-14T06:21:33.099Z,16.30
2018-05-14T06:24:08.259Z,16.40
2018-05-14T06:26:43.420Z,16.70
2018-05-14T06:29:18.598Z,17.10
2018-05-14T06:31:53.821Z,17.50
2018-05-14T06:34:29.870Z,17.80
2018-05-14T06:37:05.069Z,17.70
2018-05-14T06:39:40.217Z,17.70
2018-05-14T06:42:15.494Z,17.70
2018-05-14T06:44:50.650Z,17.70
2018-05-14T06:47:26.725Z,17.60
2018-05-14T06:50:02.717Z,17.60
2018-05-14T06:52:38.660Z,17.70
2018-05-14T06:55:13.860Z,17.70
2018-05-14T06:57:49.078Z,17.90
2018-05-14T07:00:24.351Z,18.10
2018-05-14T07:02:59.725Z,18.20
2018-05-14T07:05:35.005Z,18.00
2018-05-14T07:08:10.211Z,18.00
2018-05-14T07:10:45.348Z,17.90
2018-05-14T07:13:21.186Z,17.80
2018-05-14T07:15:56.348Z,17.70
2018-05-14T07:18:32.419Z,17.80
2018-05-14T07:21:09.312Z,17.80
2018-05-14T07:23:44.598Z,17.80
2018-05-14T07:26:19.974Z,17.80
2018-05-14T07:28:56.016Z,17.80
2018-05-14T07:31:31.984Z,17.90
2018-05-14T07:34:07.085Z,17.90
2018-05-14T07:36:47.763Z,18.00
2018-05-14T07:39:22.992Z,17.90
2018-05-14T07:41:58.349Z,18.00
2018-05-14T07:44:33.578Z,17.90
2018-05-14T07:47:08.925Z,17.90
2018-05-14T07:49:44.060Z,17.90
2018-05-14T07:52:21.104Z,17.90
2018-05-14T07:54:56.258Z,17.90
2018-05-14T07:57:31.537Z,18.00
2018-05-14T08:00:07.463Z,18.20
2018-05-14T08:02:42.854Z,18.20
2018-05-14T08:05:18.978Z,18.40
2018-05-14T08:07:54.905Z,18.70
2018-05-14T08:10:30.825Z,18.70
2018-05-14T08:13:06.001Z,18.70
2018-05-14T08:15:41.972Z,18.50
2018-05-14T08:18:17.116Z,18.50
2018-05-14T08:20:52.501Z,18.30
2018-05-14T08:23:27.729Z,18.00
2018-05-14T08:26:02.804Z,17.80
2018-05-14T08:28:38.018Z,17.40
2018-05-14T08:31:13.146Z,16.90
2018-05-14T08:33:49.205Z,16.40
2018-05-14T08:36:24.349Z,16.40
2018-05-14T08:39:00.369Z,16.20
2018-05-14T08:41:35.759Z,16.20
2018-05-14T08:44:11.743Z,16.20
2018-05-14T08:46:46.979Z,16.20
2018-05-14T08:49:22.346Z,16.20
2018-05-14T08:51:57.524Z,16.20
2018-05-14T08:54:32.831Z,16.30
2018-05-14T08:57:08.780Z,16.30
2018-05-14T08:59:43.895Z,16.30
2018-05-14T09:02:19.155Z,16.30
2018-05-14T09:04:54.329Z,16.30
2018-05-14T09:07:29.420Z,16.20
2018-05-14T09:10:04.672Z,16.20
2018-05-14T09:12:40.511Z,16.20
2018-05-14T09:15:15.681Z,16.20
2018-05-14T09:17:50.805Z,16.20
2018-05-14T09:20:26.033Z,16.20
2018-05-14T09:23:01.335Z,16.20
2018-05-14T09:25:36.483Z,16.30
2018-05-14T09:28:11.759Z,16.40
2018-05-14T09:30:47.831Z,16.50
2018-05-14T09:33:22.964Z,16.50
2018-05-14T09:35:58.109Z,16.60
2018-05-14T09:38:33.417Z,16.60
2018-05-14T09:41:08.547Z,16.90
2018-05-14T09:43:43.835Z,17.00
2018-05-14T09:46:19.151Z,17.10
2018-05-14T09:48:54.502Z,17.30
2018-05-14T09:51:29.609Z,17.60
2018-05-14T09:54:04.691Z,17.90
2018-05-14T09:56:40.629Z,18.90
2018-05-14T09:59:15.770Z,18.90
2018-05-14T10:01:51.126Z,19.50
2018-05-14T10:04:26.249Z,19.90
2018-05-14T10:07:01.489Z,20.20
2018-05-14T10:09:37.497Z,20.70
2018-05-14T10:12:13.470Z,21.00
2018-05-14T10:14:49.322Z,21.10
2018-05-14T10:17:25.293Z,21.40
2018-05-14T10:20:00.449Z,21.40
2018-05-14T10:22:36.347Z,21.90
2018-05-14T10:25:11.605Z,21.80
2018-05-14T10:27:46.705Z,21.90
2018-05-14T10:30:21.961Z,22.10
2018-05-14T10:32:57.198Z,22.60
2018-05-14T10:35:32.439Z,23.10
2018-05-14T10:38:08.368Z,23.80
2018-05-14T10:40:43.552Z,23.90
2018-05-14T10:43:19.422Z,24.50
2018-05-14T10:45:54.577Z,24.50
2018-05-14T10:48:29.751Z,25.00
2018-05-14T10:51:04.972Z,25.00
2018-05-14T10:53:40.251Z,24.60
2018-05-14T10:56:15.531Z,24.40
2018-05-14T10:58:50.707Z,24.60
2018-05-14T11:01:26.704Z,24.80
2018-05-14T11:04:01.892Z,24.80
2018-05-14T11:06:36.948Z,24.90
2018-05-14T11:09:12.161Z,25.40
2018-05-14T11:11:47.428Z,25.20
2018-05-14T11:14:22.746Z,25.50
2018-05-14T11:16:57.960Z,25.80
2018-05-14T11:19:33.228Z,26.10
2018-05-14T11:22:08.367Z,26.00
2018-05-14T11:24:44.271Z,25.90
2018-05-14T11:27:19.404Z,25.90
2018-05-14T11:29:54.646Z,25.60
2018-05-14T11:32:29.893Z,25.60
2018-05-14T11:35:05.193Z,25.70
2018-05-14T11:37:40.289Z,25.60
2018-05-14T11:40:15.580Z,25.70
2018-05-14T11:42:50.828Z,25.70
2018-05-14T11:45:26.818Z,26.00
2018-05-14T11:48:02.028Z,25.90
2018-05-14T11:50:38.016Z,26.30
2018-05-14T11:53:13.205Z,26.30
2018-05-14T11:55:48.310Z,26.50
2018-05-14T11:58:23.421Z,26.40
2018-05-14T12:00:58.670Z,26.70
2018-05-14T12:03:33.960Z,26.90
2018-05-14T12:06:09.868Z,26.80
2018-05-14T12:08:45.075Z,26.80
2018-05-14T12:11:20.369Z,26.90
2018-05-14T12:13:55.698Z,27.00
2018-05-14T12:16:31.702Z,27.20
2018-05-14T12:19:06.908Z,27.20
2018-05-14T12:21:42.174Z,27.50
2018-05-14T12:24:17.397Z,27.70
2018-05-14T12:26:52.679Z,27.70
2018-05-14T12:29:27.959Z,27.80
2018-05-14T12:32:04.049Z,27.80
2018-05-14T12:34:39.317Z,27.80
2018-05-14T12:37:14.455Z,27.80
2018-05-14T12:39:49.703Z,27.80
2018-05-14T12:42:25.031Z,27.70
2018-05-14T12:45:00.320Z,27.60
2018-05-14T12:47:35.575Z,27.50
2018-05-14T12:50:11.517Z,27.40
2018-05-14T12:52:47.437Z,27.50
2018-05-14T12:55:22.644Z,27.40
2018-05-14T12:57:58.553Z,27.60
2018-05-14T13:00:34.491Z,27.60
2018-05-14T13:03:09.757Z,27.60
2018-05-14T13:05:45.669Z,27.40
2018-05-14T13:08:20.959Z,27.40
2018-05-14T13:10:56.276Z,27.50
2018-05-14T13:13:31.600Z,27.50
2018-05-14T13:16:06.890Z,27.60
2018-05-14T13:18:42.801Z,26.80
2018-05-14T13:21:18.771Z,26.00
2018-05-14T13:23:53.930Z,26.00
2018-05-14T13:26:29.065Z,25.60
2018-05-14T13:29:05.131Z,24.10
2018-05-14T13:31:40.429Z,24.10
2018-05-14T13:34:15.668Z,23.40
2018-05-14T13:36:50.755Z,22.50
2018-05-14T13:39:25.836Z,21.80
2018-05-14T13:42:01.193Z,21.60
2018-05-14T13:44:36.967Z,21.40
2018-05-14T13:47:12.804Z,21.30
2018-05-14T13:49:48.070Z,21.30
2018-05-14T13:52:24.023Z,21.30
2018-05-14T13:54:59.983Z,21.20
2018-05-14T13:57:35.279Z,21.20
2018-05-14T14:00:10.531Z,21.00
2018-05-14T14:02:46.515Z,20.80
2018-05-14T14:05:21.584Z,20.70
2018-05-14T14:07:56.967Z,20.80
2018-05-14T14:10:32.956Z,20.70
2018-05-14T14:13:08.981Z,20.60
2018-05-14T14:15:44.136Z,20.60
2018-05-14T14:18:19.448Z,20.60
2018-05-14T14:20:54.719Z,20.70
2018-05-14T14:23:30.002Z,20.70
2018-05-14T14:26:05.292Z,20.70
2018-05-14T14:28:40.512Z,20.70
2018-05-14T14:31:15.757Z,20.60
2018-05-14T14:33:51.057Z,20.30
2018-05-14T14:36:26.363Z,20.10
2018-05-14T14:39:01.543Z,19.90
2018-05-14T14:41:37.527Z,19.80
2018-05-14T14:44:12.783Z,19.80
2018-05-14T14:46:48.165Z,19.70
2018-05-14T14:49:23.269Z,19.70
2018-05-14T14:51:58.625Z,19.90
2018-05-14T14:54:33.951Z,19.70
2018-05-14T14:57:10.029Z,19.60
2018-05-14T14:59:45.353Z,19.60
2018-05-14T15:02:20.591Z,19.60
2018-05-14T15:04:55.845Z,19.50
2018-05-14T15:07:31.737Z,19.30
2018-05-14T15:10:06.957Z,19.30
2018-05-14T15:12:42.110Z,19.20
2018-05-14T15:15:17.984Z,19.20
2018-05-14T15:17:53.725Z,19.10
2018-05-14T15:20:29.612Z,19.00
2018-05-14T15:23:04.773Z,19.00
2018-05-14T15:25:39.992Z,19.00
2018-05-14T15:28:15.172Z,19.20
2018-05-14T15:30:50.327Z,19.20
2018-05-14T15:33:26.289Z,19.40
2018-05-14T15:36:01.511Z,19.40
2018-05-14T15:38:36.831Z,19.50
2018-05-14T15:41:11.958Z,19.60
2018-05-14T15:43:48.043Z,19.70
2018-05-14T15:46:23.164Z,19.60
2018-05-14T15:48:58.216Z,19.70
2018-05-14T15:51:34.122Z,19.70
2018-05-14T15:54:10.355Z,20.00
2018-05-14T15:56:45.517Z,19.90
2018-05-14T15:59:20.797Z,20.00
2018-05-14T16:01:56.945Z,20.00
2018-05-14T16:04:32.781Z,20.20
2018-05-14T16:07:07.938Z,20.20
2018-05-14T16:09:43.360Z,20.30
2018-05-14T16:12:19.326Z,20.40
2018-05-14T16:14:55.282Z,20.50
2018-05-14T16:17:31.447Z,20.50
2018-05-14T16:20:07.467Z,20.90
2018-05-14T16:22:43.567Z,20.90
2018-05-14T16:25:18.762Z,20.90
2018-05-14T16:27:54.003Z,21.00
2018-05-14T16:30:30.021Z,21.10
2018-05-14T16:33:05.198Z,21.20
2018-05-14T16:35:40.530Z,21.30
2018-05-14T16:38:15.703Z,21.30
2018-05-14T16:40:51.644Z,21.40
2018-05-14T16:43:27.962Z,21.40
2018-05-14T16:46:04.905Z,21.50
2018-05-14T16:48:40.194Z,21.40
2018-05-14T16:51:15.577Z,21.50
2018-05-14T16:53:50.876Z,21.60
2018-05-14T16:56:26.068Z,21.60
2018-05-14T16:59:02.082Z,21.80
2018-05-14T17:01:37.322Z,21.70
2018-05-14T17:04:12.758Z,21.90
2018-05-14T17:06:49.144Z,22.00
2018-05-14T17:09:24.653Z,22.00
2018-05-14T17:11:59.836Z,22.10
2018-05-14T17:14:35.073Z,22.10
2018-05-14T17:17:10.184Z,22.10
2018-05-14T17:19:45.511Z,22.10
2018-05-14T17:22:20.740Z,22.20
2018-05-14T17:24:56.012Z,22.20
2018-05-14T17:27:31.186Z,22.30
2018-05-14T17:30:06.450Z,22.30
2018-05-14T17:32:41.600Z,22.30
2018-05-14T17:35:16.908Z,22.20
2018-05-14T17:37:52.126Z,22.20
2018-05-14T17:40:27.441Z,22.10
2018-05-14T17:43:03.378Z,22.10
2018-05-14T17:45:39.400Z,22.10
2018-05-14T17:48:15.483Z,22.10
2018-05-14T17:50:50.651Z,22.10
2018-05-14T17:53:25.835Z,22.00
2018-05-14T17:56:01.428Z,22.00
2018-05-14T17:58:39.473Z,21.90
2018-05-14T18:01:14.699Z,21.90
2018-05-14T18:03:49.893Z,21.90
2018-05-14T18:06:25.050Z,21.90
2018-05-14T18:09:00.385Z,21.80
2018-05-14T18:11:35.601Z,21.80
2018-05-14T18:14:10.918Z,21.80
2018-05-14T18:16:47.170Z,21.80
2018-05-14T18:19:22.521Z,21.70
2018-05-14T18:22:03.294Z,21.70
2018-05-14T18:24:38.659Z,21.70
2018-05-14T18:27:20.015Z,21.60
2018-05-14T18:29:55.942Z,21.50
2018-05-14T18:32:31.850Z,21.50
2018-05-14T18:35:12.430Z,21.50
2018-05-14T18:37:47.740Z,21.40
2018-05-14T18:40:23.113Z,21.30
2018-05-14T18:42:58.434Z,21.30
2018-05-14T18:45:33.775Z,21.20
2018-05-14T18:48:09.081Z,21.10
2018-05-14T18:50:44.244Z,21.10
2018-05-14T18:53:21.544Z,21.00
2018-05-14T18:55:56.791Z,21.00
2018-05-14T18:58:32.066Z,20.90
2018-05-14T19:01:07.369Z,20.80
2018-05-14T19:03:42.693Z,20.70
2018-05-14T19:06:17.877Z,20.60
2018-05-14T19:08:53.198Z,20.50
2018-05-14T19:11:33.810Z,20.40
2018-05-14T19:14:09.174Z,20.30
2018-05-14T19:16:50.019Z,20.20
2018-05-14T19:19:25.714Z,20.10
2018-05-14T19:22:00.961Z,20.00
2018-05-14T19:24:36.032Z,20.00
2018-05-14T19:27:11.359Z,19.90
2018-05-14T19:29:46.631Z,19.90
2018-05-14T19:32:21.784Z,19.80
2018-05-14T19:42:07.158Z,19.50
2018-05-14T19:44:43.061Z,19.40
2018-05-14T19:47:18.200Z,19.40
2018-05-14T19:49:53.409Z,19.40
2018-05-14T19:52:28.559Z,19.30
2018-05-14T19:55:03.826Z,19.20
2018-05-14T19:57:39.040Z,19.20
2018-05-14T20:00:14.937Z,19.00
2018-05-14T20:02:50.030Z,19.00
2018-05-14T20:05:25.303Z,19.00
2018-05-14T20:08:00.416Z,18.90
2018-05-14T20:10:35.603Z,18.90
2018-05-14T20:13:10.953Z,18.70
2018-05-14T20:15:46.111Z,18.70
2018-05-14T20:18:21.373Z,18.60
2018-05-14T20:20:56.492Z,18.60
2018-05-14T20:23:32.482Z,18.40
2018-05-14T20:26:08.662Z,18.40
2018-05-14T20:28:43.934Z,18.30
2018-05-14T20:31:19.205Z,18.30
2018-05-14T20:33:54.572Z,18.20
2018-05-14T20:36:29.698Z,18.20
2018-05-14T20:39:07.615Z,18.10
2018-05-14T20:41:42.797Z,18.00
2018-05-14T20:44:18.126Z,18.00
2018-05-14T20:46:53.576Z,17.90
2018-05-14T20:49:29.086Z,17.90
2018-05-14T20:52:04.251Z,17.90
2018-05-14T20:54:39.629Z,17.80
2018-05-14T20:57:14.900Z,17.70
2018-05-14T20:59:50.271Z,17.60
2018-05-14T21:02:25.424Z,17.50
2018-05-14T21:05:01.313Z,17.50
2018-05-14T21:07:37.272Z,17.40
2018-05-14T21:10:12.495Z,17.40
2018-05-14T21:12:48.750Z,17.40
2018-05-14T21:15:24.042Z,17.30
2018-05-14T21:18:00.030Z,17.30
2018-05-14T21:20:35.330Z,17.30
2018-05-14T21:23:10.461Z,17.20
2018-05-14T21:25:45.709Z,17.20
2018-05-14T21:28:20.835Z,17.10
2018-05-14T21:30:56.170Z,17.10
2018-05-14T21:33:32.036Z,17.00
2018-05-14T21:36:07.185Z,17.00
2018-05-14T21:38:42.452Z,16.90
2018-05-14T21:41:17.629Z,16.90
2018-05-14T21:43:52.866Z,16.80
2018-05-14T21:46:28.151Z,16.80
2018-05-14T21:49:03.293Z,16.70
2018-05-14T21:51:38.596Z,16.70
2018-05-14T21:54:13.783Z,16.60
2018-05-14T21:56:49.055Z,16.60
2018-05-14T21:59:24.246Z,16.60
2018-05-14T22:01:59.630Z,16.60
2018-05-14T22:04:35.708Z,16.50
2018-05-14T22:07:11.048Z,16.40
2018-05-14T22:09:47.040Z,16.40
2018-05-14T22:12:22.184Z,16.40
2018-05-14T22:14:57.348Z,16.40
2018-05-14T22:17:32.492Z,16.30
2018-05-14T22:20:08.628Z,16.30
2018-05-14T22:22:44.673Z,16.30
2018-05-14T22:25:20.586Z,16.20
2018-05-14T22:27:56.466Z,16.20
2018-05-14T22:30:31.571Z,16.20
2018-05-14T22:33:07.436Z,16.20
2018-05-14T22:35:42.635Z,16.10
2018-05-14T22:38:17.796Z,16.20
2018-05-14T22:40:53.153Z,16.20
2018-05-14T22:43:28.445Z,16.20
2018-05-14T22:46:03.634Z,16.20
2018-05-14T22:48:38.783Z,16.30
2018-05-14T22:51:14.644Z,16.30
2018-05-14T22:53:49.845Z,16.30
2018-05-14T22:56:25.112Z,16.40
2018-05-14T22:59:00.357Z,16.30
2018-05-14T23:01:36.451Z,16.30
2018-05-14T23:04:11.724Z,16.30
2018-05-14T23:06:46.900Z,16.40
2018-05-14T23:09:22.207Z,16.30
2018-05-14T23:11:57.413Z,16.40
2018-05-14T23:14:33.422Z,16.30
2018-05-14T23:17:09.384Z,16.30
2018-05-14T23:19:44.475Z,16.30
2018-05-14T23:22:19.781Z,16.30
2018-05-14T23:24:55.051Z,16.20
2018-05-14T23:27:30.369Z,16.20
2018-05-14T23:30:05.679Z,16.10
2018-05-14T23:32:40.918Z,16.10
2018-05-14T23:35:16.867Z,16.00
2018-05-14T23:37:52.032Z,16.00
2018-05-14T23:40:28.042Z,16.00
2018-05-14T23:43:03.981Z,15.90
2018-05-14T23:45:39.159Z,15.90
2018-05-14T23:48:15.052Z,15.80
2018-05-14T23:50:50.207Z,15.80
2018-05-14T23:53:25.343Z,15.80
2018-05-14T23:56:00.675Z,15.80
2018-05-14T23:58:35.816Z,15.80
